Time;durP1;ratioP1;P1;durP2;ratioP2;P2;SDS_P1;SDS_P2;PMS_P1;PMS_P2;Temp;Humidity;BMP_temperature;BMP_pressure;BME280_temperature;BME280_humidity;BME280_pressure;Samples;Min_cycle;Max_cycle;Signal;HPM_P1;HPM_P2
2022/01/27 00:00:45;;;;;;;51.57;24.70;;;4.50;99.90;;;;;;5073389;28;20470;-84
2022/01/27 00:03:18;;;;;;;54.37;22.97;;;4.50;99.90;;;;;;5073263;28;20455;-84
2022/01/27 00:05:54;;;;;;;53.33;21.40;;;4.50;99.90;;;;;;5073887;28;20443;-83
2022/01/27 00:08:27;;;;;;;42.70;21.77;;;4.60;99.90;;;;;;5073683;28;20409;-84
2022/01/27 00:13:29;;;;;;;55.87;24.77;;;4.60;99.90;;;;;;5073507;28;20412;-84
2022/01/27 00:16:13;;;;;;;49.13;23.00;;;4.60;99.90;;;;;;5073245;28;20205;-84
2022/01/27 00:18:39;;;;;;;49.83;23.17;;;4.60;99.90;;;;;;5073605;28;20419;-84
2022/01/27 00:21:04;;;;;;;46.53;22.33;;;4.60;99.90;;;;;;5073443;28;20830;-84
2022/01/27 00:23:30;;;;;;;54.60;24.30;;;4.60;99.90;;;;;;5073516;28;20418;-84
2022/01/27 00:25:56;;;;;;;46.80;24.47;;;4.60;99.90;;;;;;5073485;28;20199;-84
2022/01/27 00:28:21;;;;;;;48.43;22.20;;;4.70;99.90;;;;;;5073395;28;20198;-84
2022/01/27 00:30:47;;;;;;;52.00;25.13;;;4.60;99.90;;;;;;5072943;28;20177;-83
2022/01/27 00:33:12;;;;;;;54.03;24.00;;;4.70;99.90;;;;;;5073411;28;20187;-84
2022/01/27 00:35:38;;;;;;;50.67;24.37;;;4.70;99.90;;;;;;5073271;28;20223;-84
2022/01/27 00:38:04;;;;;;;54.57;25.13;;;4.70;99.90;;;;;;5073194;28;20253;-83
2022/01/27 00:40:30;;;;;;;56.20;26.60;;;4.70;99.90;;;;;;5073264;28;20673;-84
2022/01/27 00:42:56;;;;;;;54.77;26.30;;;4.70;99.90;;;;;;5073091;28;20419;-84
2022/01/27 00:45:24;;;;;;;58.60;29.03;;;4.70;99.90;;;;;;5072781;28;20433;-84
2022/01/27 00:47:50;;;;;;;54.07;27.23;;;4.80;99.90;;;;;;5073145;28;20511;-84
2022/01/27 00:50:18;;;;;;;57.03;27.37;;;4.80;99.90;;;;;;5073029;28;20829;-84
2022/01/27 00:52:49;;;;;;;58.50;28.10;;;4.80;99.90;;;;;;5072993;28;20191;-84
2022/01/27 00:55:15;;;;;;;60.83;29.03;;;4.80;99.90;;;;;;5072933;28;20415;-84
2022/01/27 01:00:27;;;;;;;59.60;27.70;;;4.80;99.90;;;;;;5072447;28;21007;-84
2022/01/27 01:03:00;;;;;;;61.07;28.07;;;4.80;99.90;;;;;;5072952;28;20458;-88
2022/01/27 01:05:46;;;;;;;72.23;30.70;;;4.80;99.90;;;;;;5073276;28;20412;-84
2022/01/27 01:14:26;;;;;;;62.10;29.97;;;4.80;99.90;;;;;;5050551;28;20824;-86
2022/01/27 01:16:56;;;;;;;53.10;27.27;;;4.80;99.90;;;;;;5071714;28;20412;-85
2022/01/27 01:19:41;;;;;;;52.00;25.17;;;4.80;99.90;;;;;;5054701;28;20414;-84
2022/01/27 01:30:49;;;;;;;52.13;25.90;;;4.80;99.90;;;;;;4983168;28;20415;-85
2022/01/27 01:33:22;;;;;;;45.27;26.47;;;4.80;99.90;;;;;;5072634;28;20441;-85
2022/01/27 01:35:49;;;;;;;51.37;27.90;;;4.80;99.90;;;;;;5054624;28;20429;-85
2022/01/27 01:38:20;;;;;;;48.57;26.57;;;4.80;99.90;;;;;;5054500;28;20428;-85
2022/01/27 01:40:51;;;;;;;62.47;28.37;;;4.80;99.90;;;;;;5054464;28;20998;-84
2022/01/27 01:43:18;;;;;;;57.83;28.17;;;4.80;99.90;;;;;;5072390;28;20516;-84
2022/01/27 01:45:44;;;;;;;55.87;27.63;;;4.80;99.90;;;;;;5072098;28;20740;-85
2022/01/27 01:48:10;;;;;;;66.27;29.27;;;4.80;99.90;;;;;;5072355;28;20419;-83
2022/01/27 01:50:36;;;;;;;62.87;30.20;;;4.80;99.90;;;;;;5054358;28;20431;-85
2022/01/27 01:53:02;;;;;;;63.23;28.70;;;4.80;99.90;;;;;;5072275;28;20184;-84
2022/01/27 01:55:30;;;;;;;71.83;33.40;;;4.80;99.90;;;;;;5072376;28;20465;-84
2022/01/27 01:57:57;;;;;;;57.53;29.73;;;4.80;99.90;;;;;;5072334;28;20411;-85
2022/01/27 02:00:23;;;;;;;68.83;30.00;;;4.80;99.90;;;;;;5071853;28;20512;-85
2022/01/27 02:02:48;;;;;;;61.23;30.40;;;4.80;99.90;;;;;;5054087;28;20863;-84
2022/01/27 02:05:14;;;;;;;59.77;29.80;;;4.80;99.90;;;;;;5072160;28;20931;-84
2022/01/27 02:19:23;;;;;;;61.93;28.63;;;4.90;99.90;;;;;;5072314;28;20913;-85
2022/01/27 02:22:06;;;;;;;60.90;29.80;;;5.00;99.90;;;;;;5072228;28;20470;-85
2022/01/27 02:24:34;;;;;;;56.40;29.30;;;4.90;99.90;;;;;;5072148;28;20910;-84
2022/01/27 02:27:02;;;;;;;53.70;26.97;;;5.00;99.90;;;;;;5073517;28;20415;-84
2022/01/27 02:29:28;;;;;;;50.57;28.63;;;5.00;99.90;;;;;;5075240;28;20507;-84
2022/01/27 02:31:55;;;;;;;50.47;29.10;;;5.00;99.90;;;;;;5075723;28;20443;-84
2022/01/27 02:34:22;;;;;;;55.87;27.07;;;5.00;99.90;;;;;;5075615;28;20490;-84
2022/01/27 02:36:47;;;;;;;47.00;25.47;;;5.00;99.90;;;;;;5075393;28;20912;-84
2022/01/27 02:39:14;;;;;;;54.87;26.83;;;5.00;99.90;;;;;;5075623;28;20399;-85
2022/01/27 02:41:48;;;;;;;51.13;25.33;;;5.10;99.90;;;;;;5075464;28;20301;-85
2022/01/27 02:44:43;;;;;;;49.47;26.93;;;5.10;99.90;;;;;;5075060;28;20725;-85
2022/01/27 02:47:09;;;;;;;47.53;24.40;;;5.10;99.90;;;;;;5075302;28;20407;-84
2022/01/27 02:49:34;;;;;;;38.83;22.70;;;5.10;99.90;;;;;;5057365;28;20840;-85
2022/01/27 02:52:00;;;;;;;48.43;25.53;;;5.10;99.90;;;;;;5075450;28;20182;-85
2022/01/27 02:54:25;;;;;;;48.30;25.23;;;5.10;99.90;;;;;;5075378;28;20638;-85
2022/01/27 02:56:51;;;;;;;47.33;25.37;;;5.10;99.90;;;;;;5082461;28;20192;-83
2022/01/27 02:59:17;;;;;;;41.87;23.00;;;5.10;99.90;;;;;;5064629;28;20187;-85
2022/01/27 03:01:48;;;;;;;48.20;24.40;;;5.10;99.90;;;;;;5076111;28;20785;-84
2022/01/27 03:04:15;;;;;;;41.67;23.30;;;5.20;99.90;;;;;;5076445;28;20504;-84
2022/01/27 03:06:41;;;;;;;42.50;24.10;;;5.20;99.90;;;;;;5058266;28;20919;-84
2022/01/27 03:09:07;;;;;;;39.47;21.30;;;5.20;99.90;;;;;;5057597;28;20518;-84
2022/01/27 03:12:11;;;;;;;47.90;24.03;;;5.20;99.90;;;;;;5056986;28;20927;-84
2022/01/27 03:14:37;;;;;;;53.33;22.33;;;5.20;99.90;;;;;;5071263;28;20173;-85
2022/01/27 03:17:04;;;;;;;39.37;21.63;;;5.20;99.90;;;;;;5074689;28;20450;-84
2022/01/27 03:19:30;;;;;;;45.97;25.80;;;5.30;99.90;;;;;;5074777;28;20998;-84
2022/01/27 03:21:56;;;;;;;38.47;22.23;;;5.30;99.90;;;;;;5056627;28;20554;-84
2022/01/27 03:24:24;;;;;;;47.43;21.83;;;5.20;99.90;;;;;;5056717;28;20255;-84
2022/01/27 03:26:50;;;;;;;38.97;21.97;;;5.20;99.90;;;;;;5074692;28;20412;-86
2022/01/27 03:29:17;;;;;;;44.27;23.03;;;5.30;99.90;;;;;;5074091;28;20415;-86
2022/01/27 03:31:43;;;;;;;42.40;23.23;;;5.20;99.90;;;;;;5074456;28;20954;-86
2022/01/27 03:34:09;;;;;;;40.33;21.77;;;5.20;99.90;;;;;;5074518;28;20548;-86
2022/01/27 03:36:34;;;;;;;45.23;24.87;;;5.20;99.90;;;;;;5056458;28;20876;-86
2022/01/27 03:39:00;;;;;;;38.80;22.57;;;5.20;99.90;;;;;;5073454;28;20408;-85
2022/01/27 03:41:31;;;;;;;37.23;21.90;;;5.20;99.90;;;;;;5074201;28;20215;-85
2022/01/27 03:43:57;;;;;;;39.50;22.43;;;5.20;99.90;;;;;;5073861;28;20161;-86
2022/01/27 03:46:22;;;;;;;46.30;22.57;;;5.30;99.90;;;;;;5056067;28;20446;-86
2022/01/27 03:48:48;;;;;;;42.83;21.90;;;5.30;99.90;;;;;;5074162;28;20698;-85
2022/01/27 03:51:13;;;;;;;40.90;22.23;;;5.30;99.90;;;;;;5074216;28;20166;-86
2022/01/27 03:53:39;;;;;;;44.20;23.87;;;5.30;99.90;;;;;;5056247;28;20176;-87
2022/01/27 03:56:05;;;;;;;39.27;23.57;;;5.30;99.90;;;;;;5055886;28;20169;-86
2022/01/27 03:58:30;;;;;;;37.77;20.03;;;5.20;99.90;;;;;;5055631;28;20181;-85
2022/01/27 04:00:56;;;;;;;40.37;23.00;;;5.20;99.90;;;;;;5073719;28;20657;-85
2022/01/27 04:03:22;;;;;;;44.63;22.57;;;5.20;99.90;;;;;;5073739;28;20177;-87
2022/01/27 04:05:52;;;;;;;49.07;25.37;;;4.70;99.90;;;;;;5073955;28;20249;-86
2022/01/27 04:08:19;;;;;;;39.10;22.80;;;5.20;99.90;;;;;;5056219;28;20432;-86
2022/01/27 04:10:45;;;;;;;43.23;21.43;;;5.20;99.90;;;;;;5074318;28;20419;-85
2022/01/27 04:13:10;;;;;;;39.27;21.90;;;5.20;99.90;;;;;;5074534;28;20962;-85
2022/01/27 04:15:39;;;;;;;40.00;24.00;;;5.20;99.90;;;;;;5073595;28;20173;-84
2022/01/27 04:18:05;;;;;;;37.70;21.40;;;5.20;99.90;;;;;;5055613;28;20185;-84
2022/01/27 04:20:30;;;;;;;42.47;22.90;;;5.20;99.90;;;;;;5073444;28;20454;-84
2022/01/27 04:22:56;;;;;;;39.17;20.47;;;5.10;99.90;;;;;;5073460;28;20263;-84
2022/01/27 04:25:22;;;;;;;44.17;25.73;;;5.10;99.90;;;;;;5073347;28;20195;-85
2022/01/27 04:27:52;;;;;;;45.87;22.03;;;5.00;99.90;;;;;;5073018;28;20295;-85
2022/01/27 04:30:20;;;;;;;53.77;26.90;;;5.00;99.90;;;;;;5053716;28;20169;-85
2022/01/27 04:32:52;;;;;;;50.93;25.17;;;4.90;99.90;;;;;;5053927;28;20429;-85
2022/01/27 04:35:21;;;;;;;43.37;24.43;;;4.90;99.90;;;;;;5072027;28;20422;-84
2022/01/27 04:38:36;;;;;;;37.20;20.87;;;4.90;99.90;;;;;;5073215;28;20446;-85
2022/01/27 04:41:00;;;;;;;47.27;26.00;;;4.90;99.90;;;;;;5062116;28;20542;-84
2022/01/27 04:44:06;;;;;;;46.87;23.87;;;4.80;99.90;;;;;;5072974;28;20407;-84
2022/01/27 04:48:56;;;;;;;39.40;23.63;;;4.80;99.90;;;;;;5073195;28;20816;-85
2022/01/27 04:51:23;;;;;;;44.43;23.53;;;4.80;99.90;;;;;;5073136;28;20406;-84
2022/01/27 04:54:00;;;;;;;46.47;23.97;;;4.80;99.90;;;;;;5072848;28;20407;-84
2022/01/27 04:56:28;;;;;;;48.83;21.97;;;4.80;99.90;;;;;;5073020;28;20478;-85
2022/01/27 04:58:58;;;;;;;43.43;23.47;;;4.70;99.90;;;;;;5072582;28;20986;-84
2022/01/27 05:01:32;;;;;;;49.30;22.60;;;4.70;99.90;;;;;;5072560;28;20490;-84
2022/01/27 05:04:03;;;;;;;36.83;21.60;;;4.70;99.90;;;;;;5073011;28;20774;-85
2022/01/27 05:06:29;;;;;;;43.20;22.63;;;4.70;99.90;;;;;;5073082;28;20426;-84
2022/01/27 05:08:55;;;;;;;39.93;22.87;;;4.70;99.90;;;;;;5072897;28;20414;-84
2022/01/27 05:11:30;;;;;;;44.07;23.17;;;4.70;99.90;;;;;;5072845;28;20887;-85
2022/01/27 05:16:31;;;;;;;42.20;23.17;;;4.70;99.90;;;;;;5072848;28;20932;-84
2022/01/27 05:18:56;;;;;;;48.83;21.37;;;4.70;99.90;;;;;;5072804;28;20407;-84
2022/01/27 05:21:22;;;;;;;39.80;22.30;;;4.70;99.90;;;;;;5072677;28;20216;-83
2022/01/27 05:23:48;;;;;;;35.87;20.93;;;4.70;99.90;;;;;;5072586;28;20169;-85
2022/01/27 05:26:14;;;;;;;32.10;19.63;;;4.70;99.90;;;;;;5072656;28;20422;-84
2022/01/27 05:28:39;;;;;;;41.13;22.43;;;4.60;99.90;;;;;;5072442;28;20171;-84
2022/01/27 05:31:05;;;;;;;33.97;19.77;;;4.70;99.90;;;;;;5072642;28;20176;-84
2022/01/27 05:33:31;;;;;;;34.63;20.00;;;4.70;99.90;;;;;;5072656;28;20182;-83
2022/01/27 05:35:57;;;;;;;40.17;22.20;;;4.60;99.90;;;;;;5072646;28;20205;-84
2022/01/27 05:38:22;;;;;;;40.30;19.70;;;4.60;99.90;;;;;;5072398;28;20948;-85
2022/01/27 05:40:48;;;;;;;39.43;21.07;;;4.60;99.90;;;;;;5072417;28;20220;-84
2022/01/27 05:43:13;;;;;;;40.47;22.30;;;4.60;99.90;;;;;;5072167;28;20180;-83
2022/01/27 05:45:39;;;;;;;37.07;18.37;;;4.60;99.90;;;;;;5072680;28;20226;-84
2022/01/27 05:48:05;;;;;;;38.63;20.37;;;4.60;99.90;;;;;;5072390;28;20548;-85
2022/01/27 05:50:32;;;;;;;39.37;21.67;;;4.60;99.90;;;;;;5072413;28;20414;-85
2022/01/27 05:52:58;;;;;;;38.40;19.80;;;4.60;99.90;;;;;;5072285;28;20183;-85
2022/01/27 05:55:24;;;;;;;31.00;17.07;;;4.60;99.90;;;;;;5072540;28;20502;-84
2022/01/27 05:57:49;;;;;;;37.37;17.83;;;4.50;99.90;;;;;;5072158;28;20181;-82
2022/01/27 06:00:15;;;;;;;37.90;19.80;;;4.50;99.90;;;;;;5072200;28;20972;-85
2022/01/27 06:02:41;;;;;;;37.07;19.13;;;4.60;99.90;;;;;;5074668;28;20228;-84
2022/01/27 06:05:06;;;;;;;32.10;17.40;;;4.60;99.90;;;;;;5075978;28;20411;-84
2022/01/27 06:07:32;;;;;;;27.47;16.40;;;4.60;99.90;;;;;;5075913;28;20204;-84
2022/01/27 06:09:58;;;;;;;32.63;16.67;;;4.60;99.90;;;;;;5058000;28;20188;-84
2022/01/27 06:12:24;;;;;;;31.37;17.60;;;4.60;99.90;;;;;;5075954;28;20177;-83
2022/01/27 06:14:50;;;;;;;28.13;16.43;;;4.60;99.90;;;;;;5075596;28;20215;-83
2022/01/27 06:17:16;;;;;;;26.43;15.97;;;4.60;99.90;;;;;;5057979;28;20407;-83
2022/01/27 06:19:45;;;;;;;31.93;16.20;;;4.60;99.90;;;;;;5075816;28;20434;-83
2022/01/27 06:22:12;;;;;;;33.27;18.70;;;4.60;99.90;;;;;;5075680;28;20207;-83
2022/01/27 06:24:39;;;;;;;30.83;17.73;;;4.60;99.90;;;;;;5075577;28;20943;-83
2022/01/27 06:27:05;;;;;;;28.23;15.07;;;4.70;99.90;;;;;;5075619;28;20434;-83
2022/01/27 06:29:30;;;;;;;30.83;17.73;;;4.60;99.90;;;;;;5075307;28;20407;-84
2022/01/27 06:31:56;;;;;;;24.87;14.80;;;4.60;99.90;;;;;;5075742;28;20169;-82
2022/01/27 06:34:21;;;;;;;32.60;18.63;;;4.50;99.90;;;;;;5075661;28;20180;-83
2022/01/27 06:36:47;;;;;;;27.50;15.87;;;4.60;99.90;;;;;;5057663;28;20650;-84
2022/01/27 06:39:12;;;;;;;29.50;16.30;;;4.60;99.90;;;;;;5057719;28;20219;-83
2022/01/27 06:41:38;;;;;;;31.23;14.97;;;4.70;99.90;;;;;;5075270;28;20291;-83
2022/01/27 06:44:05;;;;;;;29.57;15.70;;;4.60;99.90;;;;;;5057183;28;20181;-83
2022/01/27 06:46:32;;;;;;;32.53;17.63;;;4.70;99.90;;;;;;5057494;28;20181;-85
2022/01/27 06:48:57;;;;;;;30.97;17.20;;;4.70;99.90;;;;;;5075186;28;20503;-85
2022/01/27 06:51:23;;;;;;;35.43;18.20;;;4.70;99.90;;;;;;5075190;28;20514;-85
2022/01/27 06:53:49;;;;;;;34.00;17.97;;;4.70;99.90;;;;;;5075167;28;20165;-85
2022/01/27 06:56:14;;;;;;;33.50;16.70;;;4.70;99.90;;;;;;5075077;28;20180;-85
2022/01/27 06:58:40;;;;;;;28.97;17.60;;;4.70;99.90;;;;;;5074787;28;20609;-84
2022/01/27 07:01:05;;;;;;;32.70;16.40;;;4.70;99.90;;;;;;5074733;28;20206;-84
2022/01/27 07:03:31;;;;;;;34.00;17.40;;;4.70;99.90;;;;;;5075021;28;20226;-84
2022/01/27 07:05:56;;;;;;;34.40;18.80;;;4.70;99.90;;;;;;5074887;28;20173;-85
2022/01/27 07:08:22;;;;;;;31.57;17.67;;;4.70;99.90;;;;;;5074935;28;20633;-85
2022/01/27 07:10:47;;;;;;;33.93;18.00;;;4.70;99.90;;;;;;5074835;28;20190;-85
2022/01/27 07:13:14;;;;;;;28.93;16.80;;;4.70;99.90;;;;;;5073366;28;20186;-85
2022/01/27 07:15:40;;;;;;;30.90;16.33;;;4.70;99.90;;;;;;5074956;28;20162;-87
2022/01/27 07:18:05;;;;;;;30.57;17.90;;;4.70;99.90;;;;;;5074866;28;20778;-86
2022/01/27 07:20:31;;;;;;;25.37;17.77;;;4.70;99.90;;;;;;5056853;28;20205;-85
2022/01/27 07:22:56;;;;;;;34.47;17.17;;;4.80;99.90;;;;;;5074575;28;20622;-84
2022/01/27 07:25:22;;;;;;;28.67;18.00;;;4.80;99.90;;;;;;5074681;28;20180;-84
2022/01/27 07:27:47;;;;;;;34.10;17.10;;;4.80;99.90;;;;;;5074206;28;20180;-85
2022/01/27 07:30:13;;;;;;;27.67;14.77;;;4.80;99.90;;;;;;5074484;28;20164;-84
2022/01/27 07:32:38;;;;;;;23.37;13.17;;;4.80;99.90;;;;;;5074360;28;20237;-84
2022/01/27 07:35:04;;;;;;;26.27;15.43;;;4.80;99.90;;;;;;5074547;28;20173;-85
2022/01/27 07:37:30;;;;;;;25.10;14.50;;;4.80;99.90;;;;;;5074451;28;20176;-86
2022/01/27 07:39:56;;;;;;;28.93;15.43;;;4.80;99.90;;;;;;5074302;28;20408;-86
2022/01/27 07:42:21;;;;;;;25.93;13.43;;;5.00;99.90;;;;;;5074297;28;20243;-86
2022/01/27 07:44:47;;;;;;;28.87;15.17;;;4.80;99.90;;;;;;5073963;28;20172;-86
2022/01/27 07:47:13;;;;;;;24.53;14.90;;;4.80;99.90;;;;;;5056389;28;20173;-86
2022/01/27 07:49:38;;;;;;;26.70;15.07;;;4.80;99.90;;;;;;5074299;28;20169;-86
2022/01/27 07:52:04;;;;;;;29.40;15.07;;;4.80;99.90;;;;;;5074216;28;20244;-85
2022/01/27 07:54:29;;;;;;;27.10;15.07;;;4.90;99.90;;;;;;5073997;28;20636;-85
2022/01/27 07:56:55;;;;;;;31.93;15.30;;;4.80;99.90;;;;;;5056078;28;20191;-84
2022/01/27 07:59:20;;;;;;;28.70;14.43;;;4.80;99.90;;;;;;5073623;28;20660;-85
2022/01/27 08:01:46;;;;;;;25.60;16.13;;;4.90;99.90;;;;;;5073616;28;20229;-85
2022/01/27 08:04:12;;;;;;;30.67;15.97;;;4.90;99.90;;;;;;5055983;28;20169;-86
2022/01/27 08:06:38;;;;;;;21.80;15.33;;;4.90;99.90;;;;;;5074029;28;20419;-84
2022/01/27 08:09:04;;;;;;;24.50;15.63;;;4.90;99.90;;;;;;5073818;28;20640;-84
2022/01/27 08:11:29;;;;;;;24.00;15.03;;;4.90;99.90;;;;;;5073744;28;20414;-83
2022/01/27 08:14:01;;;;;;;30.50;18.30;;;5.00;99.90;;;;;;5073215;28;20173;-84
2022/01/27 08:16:26;;;;;;;26.47;15.37;;;5.20;99.90;;;;;;5073486;28;20177;-87
2022/01/27 08:18:52;;;;;;;23.10;14.23;;;5.00;99.90;;;;;;5073549;28;20418;-87
2022/01/27 08:21:18;;;;;;;24.60;15.63;;;5.00;99.90;;;;;;5073528;28;20206;-87
2022/01/27 08:23:44;;;;;;;23.77;12.83;;;5.00;99.90;;;;;;5055571;28;20267;-86
2022/01/27 08:26:13;;;;;;;23.07;14.33;;;5.10;99.90;;;;;;5073174;28;20489;-83
2022/01/27 08:28:53;;;;;;;20.90;13.87;;;5.10;99.90;;;;;;5073026;28;20431;-85
2022/01/27 08:31:19;;;;;;;19.83;13.07;;;5.10;99.90;;;;;;5073509;28;20910;-85
2022/01/27 08:33:44;;;;;;;21.60;12.00;;;5.10;99.90;;;;;;5073384;28;20449;-86
2022/01/27 08:36:10;;;;;;;19.30;12.07;;;5.20;99.90;;;;;;5055416;28;20188;-86
2022/01/27 08:38:37;;;;;;;22.17;12.70;;;5.20;99.90;;;;;;5073310;28;20180;-86
2022/01/27 08:41:03;;;;;;;19.27;11.80;;;5.30;99.90;;;;;;5055411;28;20660;-86
2022/01/27 08:43:29;;;;;;;17.77;12.33;;;5.30;99.90;;;;;;5072940;28;20403;-87
2022/01/27 08:45:54;;;;;;;21.00;11.40;;;5.30;99.90;;;;;;5073224;28;20473;-87
2022/01/27 08:48:21;;;;;;;21.20;12.30;;;5.30;99.90;;;;;;5073180;28;20170;-85
2022/01/27 08:51:00;;;;;;;18.07;11.33;;;5.30;99.90;;;;;;5038677;28;20224;-85
2022/01/27 08:53:27;;;;;;;18.77;10.20;;;5.30;99.90;;;;;;5073131;28;20818;-85
2022/01/27 08:55:53;;;;;;;15.97;10.03;;;5.40;99.90;;;;;;5073047;28;20424;-86
2022/01/27 08:58:20;;;;;;;17.20;10.90;;;5.40;99.90;;;;;;5072632;28;20408;-86
2022/01/27 09:00:46;;;;;;;21.23;12.17;;;5.40;99.90;;;;;;5072910;28;20197;-85
2022/01/27 09:03:11;;;;;;;19.07;12.10;;;5.40;99.90;;;;;;5072743;28;20463;-84
2022/01/27 09:05:37;;;;;;;16.13;11.80;;;5.40;99.90;;;;;;5072831;28;20212;-85
2022/01/27 09:08:03;;;;;;;20.47;11.57;;;5.50;99.90;;;;;;5072927;28;20238;-86
2022/01/27 09:10:32;;;;;;;15.10;9.20;;;5.50;99.90;;;;;;5072948;28;20225;-85
2022/01/27 09:12:59;;;;;;;14.63;11.03;;;5.50;99.90;;;;;;5072542;28;20202;-85
2022/01/27 09:15:24;;;;;;;15.90;9.93;;;5.50;99.90;;;;;;5072607;28;20443;-85
2022/01/27 09:17:50;;;;;;;17.93;10.60;;;5.60;99.90;;;;;;5073019;28;20462;-85
2022/01/27 09:20:16;;;;;;;14.77;10.03;;;5.60;99.90;;;;;;5054625;28;20644;-84
2022/01/27 09:22:42;;;;;;;20.83;10.40;;;5.60;99.90;;;;;;5054764;28;20564;-85
2022/01/27 09:25:22;;;;;;;16.17;12.83;;;5.60;99.90;;;;;;5054817;28;20419;-86
2022/01/27 09:27:48;;;;;;;15.80;10.30;;;5.60;99.90;;;;;;5072245;28;20166;-86
2022/01/27 09:30:17;;;;;;;14.80;9.20;;;5.60;99.90;;;;;;5054495;28;20569;-87
2022/01/27 09:32:43;;;;;;;13.40;9.23;;;5.60;99.90;;;;;;5072651;28;20418;-86
2022/01/27 09:35:08;;;;;;;15.90;9.00;;;5.70;99.90;;;;;;5072734;28;20414;-86
2022/01/27 09:37:34;;;;;;;14.37;9.53;;;5.70;99.90;;;;;;5057106;28;20427;-85
2022/01/27 09:40:00;;;;;;;15.10;10.30;;;5.70;99.90;;;;;;5077401;28;20172;-87
2022/01/27 09:42:28;;;;;;;15.33;9.93;;;5.70;99.90;;;;;;5076795;28;20256;-87
2022/01/27 09:44:54;;;;;;;11.93;6.83;;;5.70;99.90;;;;;;5080366;28;20176;-85
2022/01/27 09:47:24;;;;;;;14.47;8.03;;;5.80;99.90;;;;;;5086157;28;20994;-87
2022/01/27 09:50:04;;;;;;;13.40;8.00;;;5.80;99.90;;;;;;5086232;28;20192;-87
2022/01/27 09:52:29;;;;;;;12.60;8.70;;;5.80;99.90;;;;;;5062913;28;20411;-84
2022/01/27 09:54:55;;;;;;;10.40;5.30;;;5.90;99.90;;;;;;5076297;28;20422;-84
2022/01/27 09:57:20;;;;;;;12.40;6.83;;;5.80;99.90;;;;;;5076046;28;20169;-83
2022/01/27 09:59:46;;;;;;;12.10;6.67;;;5.80;99.90;;;;;;5076354;28;20642;-86
2022/01/27 10:02:18;;;;;;;9.17;5.97;;;5.90;99.90;;;;;;5076010;28;20220;-84
2022/01/27 10:04:55;;;;;;;10.20;5.93;;;5.90;99.90;;;;;;5076091;28;20436;-84
2022/01/27 10:07:31;;;;;;;8.73;4.47;;;5.90;99.90;;;;;;5058096;28;20428;-85
2022/01/27 10:10:15;;;;;;;7.43;4.80;;;5.90;99.90;;;;;;5076288;28;20396;-84
2022/01/27 10:12:46;;;;;;;9.90;6.17;;;6.00;99.90;;;;;;5058028;28;20498;-84
2022/01/27 10:15:17;;;;;;;7.97;4.90;;;6.00;99.90;;;;;;5058080;28;20415;-85
2022/01/27 10:18:03;;;;;;;11.53;6.03;;;6.00;99.90;;;;;;5072830;28;20411;-84
2022/01/27 10:20:29;;;;;;;8.77;5.20;;;6.10;99.90;;;;;;5075402;28;20439;-84
2022/01/27 10:23:14;;;;;;;7.97;5.40;;;6.10;99.90;;;;;;5074448;28;20421;-85
2022/01/27 10:25:50;;;;;;;7.77;4.60;;;6.10;99.90;;;;;;5038618;28;20227;-84
2022/01/27 10:31:31;;;;;;;15.37;6.93;;;6.10;99.90;;;;;;5056723;28;20416;-85
2022/01/27 10:34:01;;;;;;;9.40;4.27;;;6.20;99.90;;;;;;5051383;28;20798;-84
2022/01/27 10:36:29;;;;;;;11.50;6.27;;;6.20;99.90;;;;;;5075245;28;20476;-85
2022/01/27 10:39:04;;;;;;;9.60;5.70;;;6.20;99.90;;;;;;5075427;28;20411;-83
2022/01/27 10:41:32;;;;;;;9.00;4.93;;;6.30;99.90;;;;;;5075082;28;20467;-81
2022/01/27 10:44:16;;;;;;;9.10;5.77;;;6.30;99.90;;;;;;5075007;28;20430;-83
2022/01/27 10:47:03;;;;;;;10.57;5.97;;;6.30;99.90;;;;;;5075043;28;20489;-84
2022/01/27 10:49:31;;;;;;;12.37;5.53;;;6.40;99.90;;;;;;5053661;28;20817;-82
2022/01/27 10:51:57;;;;;;;11.80;6.27;;;6.40;99.90;;;;;;5037319;28;20921;-82
2022/01/27 10:54:39;;;;;;;14.13;6.13;;;6.50;99.90;;;;;;5055676;28;20401;-84
2022/01/27 10:57:11;;;;;;;10.17;5.00;;;6.50;99.90;;;;;;5052744;28;20416;-83
2022/01/27 10:59:37;;;;;;;13.23;7.20;;;6.50;99.90;;;;;;5074144;28;20411;-84
2022/01/27 11:02:08;;;;;;;11.50;6.30;;;6.50;99.90;;;;;;5073116;28;20479;-83
2022/01/27 11:04:40;;;;;;;11.40;5.63;;;6.60;99.90;;;;;;5074229;28;20867;-83
2022/01/27 11:07:13;;;;;;;12.03;5.37;;;6.60;99.90;;;;;;5074152;28;20438;-83
2022/01/27 11:09:43;;;;;;;12.93;5.50;;;6.70;99.90;;;;;;5073471;28;20436;-83
2022/01/27 11:12:17;;;;;;;14.53;6.00;;;6.70;99.90;;;;;;5073325;28;20439;-81
2022/01/27 11:14:45;;;;;;;14.40;6.00;;;6.80;99.90;;;;;;5074873;28;20403;-83
2022/01/27 11:17:36;;;;;;;14.13;7.70;;;6.90;99.90;;;;;;5074979;28;20477;-83
2022/01/27 11:28:02;;;;;;;18.57;6.90;;;7.10;99.90;;;;;;5074296;28;20467;-84
2022/01/27 11:30:37;;;;;;;17.60;7.20;;;7.00;99.90;;;;;;5074393;28;20421;-84
2022/01/27 11:33:10;;;;;;;18.60;6.90;;;7.30;99.90;;;;;;5074556;28;20411;-84
2022/01/27 11:35:40;;;;;;;14.23;6.23;;;7.20;99.90;;;;;;5056852;28;20412;-84
2022/01/27 11:38:23;;;;;;;13.17;6.00;;;7.30;99.90;;;;;;5074611;28;21001;-83
2022/01/27 11:41:34;;;;;;;11.30;4.67;;;7.30;99.90;;;;;;5074859;28;20455;-83
2022/01/27 11:44:34;;;;;;;13.97;5.80;;;7.30;99.90;;;;;;5073924;28;20447;-88
2022/01/27 11:47:12;;;;;;;8.90;4.60;;;7.20;99.90;;;;;;5074252;28;20411;-83
2022/01/27 11:50:09;;;;;;;18.90;6.23;;;7.30;99.90;;;;;;5075498;28;20458;-84
2022/01/27 11:52:51;;;;;;;10.90;5.67;;;7.50;99.90;;;;;;5074214;28;20404;-84
2022/01/27 11:55:26;;;;;;;18.07;5.57;;;7.20;99.90;;;;;;5074049;28;20420;-81
2022/01/27 11:57:55;;;;;;;11.93;5.37;;;7.40;99.90;;;;;;5055636;28;20449;-84
2022/01/27 12:00:26;;;;;;;20.60;5.43;;;7.70;99.90;;;;;;5073206;28;20401;-82
2022/01/27 12:03:00;;;;;;;17.53;5.30;;;7.80;99.90;;;;;;5073850;28;20455;-82
2022/01/27 12:05:28;;;;;;;17.77;5.97;;;7.90;99.90;;;;;;5073548;28;20465;-81
2022/01/27 12:08:09;;;;;;;17.37;4.70;;;8.00;99.90;;;;;;5073605;28;20897;-83
2022/01/27 12:10:58;;;;;;;16.80;4.60;;;8.00;99.90;;;;;;5073716;28;20412;-83
2022/01/27 12:13:49;;;;;;;16.40;5.83;;;7.90;99.90;;;;;;5073310;28;20494;-84
2022/01/27 12:19:14;;;;;;;25.57;4.70;;;8.90;99.90;;;;;;5055734;28;20498;-83
2022/01/27 12:21:50;;;;;;;15.47;3.40;;;9.00;99.90;;;;;;5045405;28;20500;-82
2022/01/27 12:26:49;;;;;;;13.40;2.07;;;10.30;99.90;;;;;;5073397;28;20415;-83
2022/01/27 12:29:29;;;;;;;12.50;2.80;;;9.90;99.90;;;;;;5072649;28;20495;-82
2022/01/27 12:31:57;;;;;;;8.30;2.07;;;11.30;99.90;;;;;;5074653;28;20424;-82
2022/01/27 12:34:23;;;;;;;7.90;1.70;;;10.60;99.90;;;;;;5073498;28;20411;-82
2022/01/27 12:37:28;;;;;;;13.67;2.70;;;10.50;99.90;;;;;;5073167;28;20436;-82
2022/01/27 12:39:57;;;;;;;9.77;2.20;;;10.10;99.90;;;;;;5028698;28;20990;-83
2022/01/27 12:42:32;;;;;;;16.23;3.53;;;9.50;99.90;;;;;;5072830;28;20554;-82
2022/01/27 12:45:04;;;;;;;9.30;2.13;;;;;;;;;;5072186;28;20412;-82
2022/01/27 12:47:31;;;;;;;11.80;2.63;;;8.90;99.90;;;;;;5071479;28;20732;-82
2022/01/27 12:50:12;;;;;;;6.77;2.27;;;8.90;99.90;;;;;;5071949;28;20457;-83
2022/01/27 12:52:42;;;;;;;12.27;2.40;;;8.80;99.90;;;;;;5071985;28;20408;-82
2022/01/27 12:55:16;;;;;;;17.63;2.57;;;8.80;99.90;;;;;;5072017;28;20414;-82
2022/01/27 12:57:42;;;;;;;12.67;2.20;;;8.90;99.90;;;;;;5071655;28;20471;-83
2022/01/27 13:00:12;;;;;;;10.33;1.60;;;9.10;99.90;;;;;;5053876;28;20426;-81
2022/01/27 13:02:39;;;;;;;12.10;2.57;;;8.80;99.90;;;;;;5072468;28;20572;-84
2022/01/27 13:05:06;;;;;;;23.90;3.60;;;8.60;99.90;;;;;;5072859;28;20411;-83
2022/01/27 13:07:35;;;;;;;14.90;2.20;;;8.50;99.90;;;;;;5072946;28;20783;-83
2022/01/27 13:10:11;;;;;;;12.80;1.87;;;8.40;99.90;;;;;;5072890;28;20834;-82
2022/01/27 13:12:44;;;;;;;7.17;2.33;;;8.40;99.90;;;;;;5071594;28;20429;-83
2022/01/27 13:15:15;;;;;;;8.63;2.30;;;8.30;99.90;;;;;;5072905;28;20439;-82
2022/01/27 13:17:49;;;;;;;16.20;2.00;;;8.20;99.90;;;;;;5073081;28;20917;-83
2022/01/27 13:20:26;;;;;;;5.67;1.50;;;8.20;99.90;;;;;;5072856;28;20440;-82
2022/01/27 13:23:28;;;;;;;9.40;2.60;;;8.10;99.90;;;;;;5072797;28;20422;-83
2022/01/27 13:26:02;;;;;;;12.53;2.10;;;8.10;99.90;;;;;;5072682;28;20809;-83
2022/01/27 13:28:32;;;;;;;8.03;1.73;;;8.20;99.90;;;;;;5072304;28;20411;-83
2022/01/27 13:31:03;;;;;;;13.53;1.53;;;8.20;99.90;;;;;;5072624;28;20410;-82
2022/01/27 13:33:38;;;;;;;13.07;2.10;;;8.30;99.90;;;;;;5072772;28;20421;-83
2022/01/27 13:36:07;;;;;;;9.70;2.00;;;8.50;99.90;;;;;;5072711;28;20496;-83
2022/01/27 13:38:50;;;;;;;8.90;2.00;;;8.50;99.90;;;;;;5072616;28;20418;-82
2022/01/27 13:41:16;;;;;;;10.80;1.60;;;9.00;99.90;;;;;;5072417;28;20496;-83
2022/01/27 13:43:43;;;;;;;11.47;2.40;;;8.40;99.90;;;;;;5072166;28;20939;-84
2022/01/27 13:46:10;;;;;;;11.50;1.70;;;8.40;99.90;;;;;;5054340;28;20933;-83